Time;durP1;ratioP1;P1;durP2;ratioP2;P2;SDS_P1;SDS_P2;PMS_P1;PMS_P2;Temp;Humidity;BMP_temperature;BMP_pressure;BME280_temperature;BME280_humidity;BME280_pressure;Samples;Min_cycle;Max_cycle;Signal;HPM_P1;HPM_P2
2022/10/16 00:00:05;;;;;;;1.55;0.70;;;15.50;91.40;;;;;;5089704;28;20054;-66
2022/10/16 00:02:39;;;;;;;1.33;0.60;;;15.50;91.40;;;;;;5090541;28;20043;-64
2022/10/16 00:05:08;;;;;;;3.10;0.90;;;15.40;91.30;;;;;;5091245;28;20047;-64
2022/10/16 00:07:35;;;;;;;2.22;0.60;;;15.40;91.30;;;;;;5090034;28;20048;-63
2022/10/16 00:10:02;;;;;;;3.13;0.73;;;15.40;91.30;;;;;;5089688;28;20405;-64
2022/10/16 00:12:31;;;;;;;1.85;0.60;;;15.40;91.30;;;;;;5093344;28;20398;-63
2022/10/16 00:14:58;;;;;;;2.05;0.70;;;15.40;91.20;;;;;;5092398;28;20424;-63
2022/10/16 00:17:25;;;;;;;1.63;0.77;;;15.30;91.20;;;;;;5090312;28;20097;-64
2022/10/16 00:19:52;;;;;;;1.80;0.82;;;15.30;91.20;;;;;;5091301;28;20056;-63
2022/10/16 00:22:20;;;;;;;2.75;0.60;;;15.30;91.20;;;;;;5095516;28;20040;-65
2022/10/16 00:24:47;;;;;;;2.85;0.70;;;15.30;91.20;;;;;;5096609;28;20051;-65
2022/10/16 00:27:14;;;;;;;2.00;0.80;;;15.30;91.30;;;;;;5083053;28;20040;-63
2022/10/16 00:29:41;;;;;;;2.25;0.50;;;15.40;91.30;;;;;;5090251;28;20089;-64
2022/10/16 00:32:08;;;;;;;2.13;0.50;;;15.30;91.40;;;;;;5089850;28;20075;-64
2022/10/16 00:34:35;;;;;;;2.13;0.55;;;15.30;91.40;;;;;;5091651;28;20047;-64
2022/10/16 00:37:02;;;;;;;3.28;0.75;;;15.30;91.40;;;;;;5089922;28;20405;-64
2022/10/16 00:39:30;;;;;;;5.07;0.57;;;15.40;91.40;;;;;;5087037;28;20092;-65
2022/10/16 00:41:57;;;;;;;4.53;0.50;;;15.30;91.50;;;;;;5100914;28;20163;-64
2022/10/16 00:44:52;;;;;;;2.42;0.50;;;15.40;91.50;;;;;;5094231;28;20054;-63
2022/10/16 00:47:23;;;;;;;4.20;0.52;;;15.30;91.60;;;;;;5097343;28;20044;-63
2022/10/16 00:49:53;;;;;;;1.17;0.40;;;15.30;91.70;;;;;;5098966;28;20074;-63
2022/10/16 00:52:20;;;;;;;3.60;0.50;;;15.30;91.60;;;;;;5096540;28;20096;-63
2022/10/16 00:54:50;;;;;;;3.90;0.60;;;15.40;91.60;;;;;;5087864;28;20756;-64
2022/10/16 00:57:18;;;;;;;5.13;0.60;;;15.30;91.60;;;;;;5097384;28;20117;-64
2022/10/16 00:59:45;;;;;;;1.92;0.68;;;15.40;91.30;;;;;;5093193;28;20040;-63
2022/10/16 01:02:15;;;;;;;1.15;0.65;;;15.40;91.30;;;;;;5091284;28;20052;-64
2022/10/16 01:04:45;;;;;;;1.25;0.50;;;15.40;91.40;;;;;;5094907;28;20040;-64
2022/10/16 01:07:16;;;;;;;1.50;1.05;;;15.40;91.50;;;;;;5097896;28;20043;-63
2022/10/16 01:09:59;;;;;;;1.65;0.80;;;15.40;91.50;;;;;;5092085;28;20056;-63
2022/10/16 01:12:37;;;;;;;2.15;0.47;;;15.30;91.50;;;;;;5090076;28;20121;-63
2022/10/16 01:15:11;;;;;;;5.47;0.50;;;15.30;91.60;;;;;;5090029;28;20055;-63
2022/10/16 01:17:45;;;;;;;3.60;0.80;;;15.30;91.70;;;;;;5090927;28;20055;-63
2022/10/16 01:20:23;;;;;;;1.90;0.75;;;15.30;91.30;;;;;;5096556;27;20154;-63
2022/10/16 01:23:02;;;;;;;1.50;0.50;;;15.30;91.20;;;;;;5083454;28;20047;-63
2022/10/16 01:25:53;;;;;;;3.30;0.73;;;15.30;91.40;;;;;;5092940;28;20550;-63
2022/10/16 01:28:25;;;;;;;2.35;0.60;;;15.30;91.50;;;;;;5086912;28;20057;-64
2022/10/16 01:30:56;;;;;;;5.35;0.70;;;15.30;91.40;;;;;;5090729;28;20066;-63
2022/10/16 01:33:29;;;;;;;1.73;0.70;;;15.30;91.50;;;;;;5087265;28;20040;-63
2022/10/16 01:36:07;;;;;;;2.20;0.60;;;15.30;91.70;;;;;;5077738;28;20044;-64
2022/10/16 01:38:36;;;;;;;1.20;0.50;;;15.30;91.70;;;;;;5086159;28;20686;-63
2022/10/16 01:41:10;;;;;;;2.57;0.80;;;15.20;91.70;;;;;;5094904;28;20052;-62
2022/10/16 01:43:44;;;;;;;1.85;0.80;;;15.30;91.60;;;;;;5088707;28;20044;-63
2022/10/16 01:46:13;;;;;;;1.90;0.70;;;15.30;91.70;;;;;;5086911;28;20051;-63
2022/10/16 01:48:41;;;;;;;4.80;0.73;;;15.30;91.70;;;;;;5111833;27;20023;-63
2022/10/16 01:51:11;;;;;;;1.17;0.65;;;15.30;91.80;;;;;;5118563;27;20047;-63
2022/10/16 01:53:38;;;;;;;2.10;0.73;;;15.30;91.80;;;;;;5099298;28;20052;-63
2022/10/16 01:56:10;;;;;;;3.03;0.70;;;15.30;91.70;;;;;;5100195;27;20050;-63
2022/10/16 01:58:44;;;;;;;2.90;1.17;;;15.30;91.40;;;;;;5099240;28;20047;-63
2022/10/16 02:01:13;;;;;;;3.30;0.80;;;15.30;91.40;;;;;;5102808;28;20062;-63
2022/10/16 02:03:42;;;;;;;3.58;0.95;;;15.30;91.60;;;;;;5098674;28;20039;-63
2022/10/16 02:06:09;;;;;;;1.38;0.68;;;15.30;91.60;;;;;;5094832;28;20127;-63
2022/10/16 02:08:38;;;;;;;2.45;0.85;;;15.30;91.70;;;;;;5099213;28;20488;-62
2022/10/16 02:11:05;;;;;;;4.05;0.73;;;15.30;91.80;;;;;;5098965;27;20049;-61
2022/10/16 02:13:36;;;;;;;2.17;0.80;;;15.30;91.50;;;;;;5099793;28;20043;-63
2022/10/16 02:16:05;;;;;;;2.45;1.13;;;15.30;91.80;;;;;;5084323;28;20044;-62
2022/10/16 02:18:33;;;;;;;3.00;0.80;;;15.30;91.70;;;;;;5096038;28;20096;-63
2022/10/16 02:21:03;;;;;;;2.20;1.00;;;15.30;91.50;;;;;;5088934;28;21029;-63
2022/10/16 02:23:38;;;;;;;2.60;1.00;;;15.30;91.60;;;;;;5091782;28;20534;-61
2022/10/16 02:26:08;;;;;;;2.72;0.82;;;15.30;91.60;;;;;;5099620;28;20529;-63
2022/10/16 02:28:42;;;;;;;1.52;0.88;;;15.30;91.60;;;;;;5099492;28;20058;-62
2022/10/16 02:31:14;;;;;;;5.05;0.90;;;15.30;91.50;;;;;;5096046;28;20036;-63
2022/10/16 02:33:44;;;;;;;3.70;0.90;;;15.30;91.50;;;;;;5099247;28;20090;-63
2022/10/16 02:36:11;;;;;;;2.33;1.08;;;15.30;91.60;;;;;;5099245;28;20063;-63
2022/10/16 02:38:40;;;;;;;4.97;1.00;;;15.20;91.60;;;;;;5097383;28;20054;-63
2022/10/16 02:41:07;;;;;;;3.63;1.00;;;15.20;91.70;;;;;;5093850;27;20051;-62
2022/10/16 02:43:34;;;;;;;3.72;0.90;;;15.20;91.70;;;;;;5100226;28;20052;-61
2022/10/16 02:46:01;;;;;;;1.27;0.60;;;15.20;91.60;;;;;;5096787;28;20147;-62
2022/10/16 02:48:30;;;;;;;3.45;0.82;;;15.20;91.60;;;;;;5098382;28;20047;-63
2022/10/16 02:50:57;;;;;;;1.90;0.90;;;15.20;91.70;;;;;;5098532;28;20058;-64
2022/10/16 02:53:24;;;;;;;5.10;0.80;;;15.20;91.70;;;;;;5095520;28;20044;-64
2022/10/16 02:55:50;;;;;;;2.88;0.70;;;15.20;91.70;;;;;;5090408;28;20040;-63
2022/10/16 02:58:17;;;;;;;2.25;0.85;;;15.20;91.70;;;;;;5093278;28;20044;-63
2022/10/16 03:00:47;;;;;;;1.70;0.65;;;15.20;91.80;;;;;;5094230;28;20699;-63
2022/10/16 03:03:14;;;;;;;3.50;0.73;;;15.20;91.80;;;;;;5088717;28;20055;-62
2022/10/16 03:05:45;;;;;;;1.35;0.73;;;15.20;91.80;;;;;;5091070;28;20040;-63
2022/10/16 03:08:12;;;;;;;2.17;0.50;;;15.20;91.90;;;;;;5088433;28;20505;-63
2022/10/16 03:10:39;;;;;;;3.15;0.60;;;15.10;91.90;;;;;;5095453;28;20050;-62
2022/10/16 03:13:06;;;;;;;1.42;0.70;;;15.10;91.90;;;;;;5097866;28;20066;-61
2022/10/16 03:15:33;;;;;;;1.30;0.52;;;15.20;91.80;;;;;;5094456;28;20074;-63
2022/10/16 03:18:00;;;;;;;2.45;0.55;;;15.20;91.90;;;;;;5098748;28;20051;-62
2022/10/16 03:20:27;;;;;;;1.92;0.85;;;15.10;91.90;;;;;;5098701;28;20044;-62
2022/10/16 03:22:55;;;;;;;3.05;0.47;;;15.10;91.90;;;;;;5097517;27;20050;-65
2022/10/16 03:25:22;;;;;;;3.20;0.68;;;15.10;91.90;;;;;;5087672;28;20506;-62
2022/10/16 03:27:49;;;;;;;2.00;0.60;;;15.20;91.90;;;;;;5096515;28;20043;-62
2022/10/16 03:30:16;;;;;;;3.03;1.23;;;15.10;91.80;;;;;;5087604;28;20063;-62
2022/10/16 03:32:44;;;;;;;4.50;0.60;;;15.20;91.80;;;;;;5085333;28;20051;-62
2022/10/16 03:35:11;;;;;;;2.70;0.63;;;15.10;91.90;;;;;;5092884;28;20051;-62
2022/10/16 03:37:41;;;;;;;1.65;0.60;;;15.10;91.90;;;;;;5096213;28;20089;-62
2022/10/16 03:40:13;;;;;;;1.90;0.50;;;15.20;91.90;;;;;;5090244;28;20067;-64
2022/10/16 03:42:40;;;;;;;0.77;0.40;;;15.20;91.90;;;;;;5077347;28;20052;-62
2022/10/16 03:45:10;;;;;;;0.77;0.40;;;15.20;91.90;;;;;;5091221;28;20059;-61
2022/10/16 03:47:40;;;;;;;;;;;15.20;91.80;;;;;;5088404;28;20093;-65
2022/10/16 03:50:08;;;;;;;1.00;0.50;;;15.20;91.90;;;;;;5088607;28;20413;-63
2022/10/16 03:52:35;;;;;;;5.88;2.05;;;15.10;92.00;;;;;;5089315;28;20052;-63
2022/10/16 03:55:03;;;;;;;2.33;0.50;;;15.20;91.60;;;;;;5082555;28;20060;-63
2022/10/16 03:57:32;;;;;;;3.58;0.60;;;15.20;91.80;;;;;;5092795;28;20046;-63
2022/10/16 03:59:58;;;;;;;0.90;0.50;;;15.20;91.80;;;;;;5090683;28;20070;-62
2022/10/16 04:02:25;;;;;;;2.28;0.70;;;15.20;91.60;;;;;;5095081;28;20073;-63
2022/10/16 04:04:52;;;;;;;2.63;0.60;;;15.20;91.90;;;;;;5094529;28;20059;-63
2022/10/16 04:07:19;;;;;;;1.73;0.50;;;15.20;91.90;;;;;;5094098;28;20048;-63
2022/10/16 04:09:47;;;;;;;1.85;0.57;;;15.20;92.10;;;;;;5095293;28;20467;-63
2022/10/16 04:12:14;;;;;;;0.85;0.60;;;15.10;92.20;;;;;;5093305;28;20048;-63
2022/10/16 04:14:42;;;;;;;1.15;0.60;;;15.10;92.20;;;;;;5084496;28;20062;-63
2022/10/16 04:17:10;;;;;;;1.58;0.63;;;15.10;92.10;;;;;;5092276;28;20044;-63
2022/10/16 04:19:37;;;;;;;2.45;0.70;;;15.10;92.10;;;;;;5098467;28;20052;-62
2022/10/16 04:22:04;;;;;;;2.70;0.80;;;15.20;92.10;;;;;;5099815;28;20039;-62
2022/10/16 04:24:31;;;;;;;0.88;0.47;;;15.20;92.00;;;;;;5088782;28;20127;-62
2022/10/16 04:26:58;;;;;;;1.13;0.60;;;15.10;92.00;;;;;;5091803;28;20047;-62
2022/10/16 04:29:25;;;;;;;0.88;0.47;;;15.10;92.00;;;;;;5101684;28;20047;-63
2022/10/16 04:31:53;;;;;;;2.00;1.50;;;15.10;92.00;;;;;;5120666;28;20114;-63
2022/10/16 04:34:20;;;;;;;1.20;0.35;;;15.10;92.10;;;;;;5106862;27;20067;-62
2022/10/16 04:36:49;;;;;;;2.03;0.60;;;15.10;92.10;;;;;;5100665;28;20037;-63
2022/10/16 04:39:16;;;;;;;2.13;0.80;;;15.10;92.10;;;;;;5101185;28;20158;-62
2022/10/16 04:41:44;;;;;;;1.58;0.70;;;15.10;92.00;;;;;;5099034;28;20047;-64
2022/10/16 04:44:11;;;;;;;1.33;0.65;;;15.10;92.10;;;;;;5098439;28;20070;-62
2022/10/16 04:46:40;;;;;;;0.98;0.52;;;15.10;92.10;;;;;;5096578;28;20051;-63
2022/10/16 04:49:14;;;;;;;2.42;0.70;;;15.10;92.10;;;;;;5098874;28;20040;-62
2022/10/16 04:51:41;;;;;;;2.70;0.73;;;15.10;92.10;;;;;;5090081;28;20040;-63
2022/10/16 04:54:07;;;;;;;2.47;0.68;;;15.10;92.00;;;;;;5100050;28;20066;-65
2022/10/16 04:56:40;;;;;;;0.90;0.60;;;15.10;92.10;;;;;;5098325;27;20551;-62
2022/10/16 04:59:06;;;;;;;2.45;0.80;;;15.10;92.10;;;;;;5093022;28;20043;-63
2022/10/16 05:01:33;;;;;;;2.20;0.90;;;15.10;92.20;;;;;;5093157;28;20048;-63
2022/10/16 05:04:00;;;;;;;3.92;0.80;;;15.10;92.20;;;;;;5095733;28;20051;-62
2022/10/16 05:06:29;;;;;;;1.38;0.70;;;15.10;92.20;;;;;;5091394;28;20055;-62
2022/10/16 05:08:56;;;;;;;1.65;0.70;;;15.10;92.20;;;;;;5096994;27;20044;-63
2022/10/16 05:11:23;;;;;;;2.92;0.95;;;15.10;92.10;;;;;;5095604;28;20052;-64
2022/10/16 05:13:50;;;;;;;2.60;1.23;;;15.10;92.00;;;;;;5097699;28;20093;-64
2022/10/16 05:16:17;;;;;;;1.15;0.70;;;15.20;92.10;;;;;;5091080;28;20479;-62
2022/10/16 05:18:44;;;;;;;1.88;0.60;;;15.10;92.10;;;;;;5091403;28;20048;-62
2022/10/16 05:21:10;;;;;;;3.50;0.90;;;15.10;92.00;;;;;;5095392;27;20054;-63
2022/10/16 05:23:39;;;;;;;2.10;0.60;;;15.10;92.00;;;;;;5094489;28;20051;-63
2022/10/16 05:26:06;;;;;;;3.67;0.80;;;15.10;92.10;;;;;;5093745;28;20055;-62
2022/10/16 05:28:33;;;;;;;1.27;0.57;;;15.10;92.10;;;;;;5089122;28;20070;-62
2022/10/16 05:31:00;;;;;;;1.45;0.45;;;15.10;91.90;;;;;;5091903;28;20144;-62
2022/10/16 05:33:27;;;;;;;1.67;0.60;;;15.10;91.60;;;;;;5096469;28;20123;-62
2022/10/16 05:35:54;;;;;;;1.27;0.63;;;15.10;91.40;;;;;;5095412;28;20047;-63
2022/10/16 05:38:21;;;;;;;2.40;0.60;;;15.20;91.30;;;;;;5091017;27;20105;-62
2022/10/16 05:40:53;;;;;;;1.17;0.60;;;15.20;91.50;;;;;;5095617;28;20072;-62
2022/10/16 05:43:20;;;;;;;1.80;0.82;;;15.20;91.70;;;;;;5087905;28;20036;-62
2022/10/16 05:45:55;;;;;;;1.38;0.68;;;15.10;92.00;;;;;;5081561;28;20050;-62
2022/10/16 05:48:22;;;;;;;1.88;0.60;;;15.10;91.90;;;;;;5091933;28;20056;-64
2022/10/16 05:50:49;;;;;;;0.90;0.60;;;15.10;91.90;;;;;;5087295;28;20686;-64
2022/10/16 05:53:16;;;;;;;2.35;0.75;;;15.10;92.00;;;;;;5092215;28;20051;-63
2022/10/16 05:55:43;;;;;;;1.98;0.70;;;15.10;92.00;;;;;;5097244;28;20056;-63
2022/10/16 05:58:11;;;;;;;2.25;1.02;;;15.10;92.10;;;;;;5097544;27;20058;-63
2022/10/16 06:00:38;;;;;;;2.65;1.27;;;15.10;91.70;;;;;;5072739;28;20048;-63
2022/10/16 06:03:06;;;;;;;2.47;1.17;;;15.10;91.70;;;;;;5085708;28;20056;-62
2022/10/16 06:05:35;;;;;;;2.80;1.00;;;15.10;91.70;;;;;;5095890;28;20139;-63
2022/10/16 06:08:04;;;;;;;2.28;1.08;;;15.10;91.30;;;;;;5095067;27;20506;-64
2022/10/16 06:10:30;;;;;;;4.05;1.27;;;15.20;91.20;;;;;;5092552;28;20563;-62
2022/10/16 06:12:57;;;;;;;3.42;0.82;;;15.20;91.60;;;;;;5089711;28;20487;-63
2022/10/16 06:15:26;;;;;;;2.35;0.90;;;15.10;91.80;;;;;;5094675;27;20062;-63
2022/10/16 06:17:52;;;;;;;2.95;1.00;;;15.20;91.70;;;;;;5093728;28;20072;-63
2022/10/16 06:20:19;;;;;;;2.83;1.30;;;15.20;91.90;;;;;;5097709;28;20048;-63
2022/10/16 06:22:46;;;;;;;3.42;1.00;;;15.10;92.10;;;;;;5096010;28;20040;-64
2022/10/16 06:25:13;;;;;;;2.92;1.15;;;15.20;92.00;;;;;;5087528;28;20052;-64
2022/10/16 06:27:41;;;;;;;2.30;1.05;;;15.20;92.00;;;;;;5084505;28;20052;-64
2022/10/16 06:30:09;;;;;;;2.40;0.90;;;15.20;91.40;;;;;;5094458;28;20463;-62
2022/10/16 06:32:37;;;;;;;1.92;0.82;;;15.20;91.40;;;;;;5092059;27;20064;-64
2022/10/16 06:35:04;;;;;;;4.07;0.65;;;15.20;91.30;;;;;;5097107;27;20044;-64
2022/10/16 06:37:31;;;;;;;3.13;0.98;;;15.20;91.60;;;;;;5086917;28;20040;-63
2022/10/16 06:39:59;;;;;;;2.03;1.10;;;15.20;91.30;;;;;;5096215;28;20069;-63
2022/10/16 06:42:26;;;;;;;2.72;1.27;;;15.20;91.30;;;;;;5085257;28;20132;-63
2022/10/16 06:44:53;;;;;;;2.55;1.10;;;15.30;91.20;;;;;;5094276;28;20039;-63
2022/10/16 06:47:20;;;;;;;2.00;1.00;;;15.30;91.40;;;;;;5094527;28;20048;-62
2022/10/16 06:49:48;;;;;;;2.08;1.05;;;15.30;91.70;;;;;;5095423;28;20043;-63
2022/10/16 06:52:15;;;;;;;4.53;1.30;;;15.30;91.90;;;;;;5095512;27;20452;-63
2022/10/16 06:54:42;;;;;;;1.92;1.00;;;15.30;92.00;;;;;;5094078;28;20043;-62
2022/10/16 06:57:10;;;;;;;2.92;1.25;;;15.30;92.00;;;;;;5090704;28;20058;-63
2022/10/16 06:59:37;;;;;;;2.42;1.23;;;15.30;92.10;;;;;;5094465;28;20055;-63
2022/10/16 07:02:04;;;;;;;6.13;1.35;;;15.30;92.10;;;;;;5096899;28;20058;-63
2022/10/16 07:04:31;;;;;;;5.55;1.30;;;15.30;92.10;;;;;;5093798;28;20067;-63
2022/10/16 07:07:01;;;;;;;3.72;1.38;;;15.40;92.20;;;;;;5099816;28;20536;-63
2022/10/16 07:09:28;;;;;;;3.22;1.20;;;15.30;92.10;;;;;;5095288;28;20055;-64
2022/10/16 07:11:55;;;;;;;2.47;1.10;;;15.30;91.50;;;;;;5104696;28;20028;-63
2022/10/16 07:14:23;;;;;;;2.25;1.00;;;15.30;91.40;;;;;;5111140;28;20075;-62
2022/10/16 07:16:50;;;;;;;1.88;1.13;;;15.30;91.80;;;;;;5096183;28;20211;-63
2022/10/16 07:19:17;;;;;;;2.95;1.40;;;15.30;92.00;;;;;;5097464;28;20040;-64
2022/10/16 07:21:45;;;;;;;2.42;1.30;;;15.40;92.10;;;;;;5091023;28;20044;-63
2022/10/16 07:24:15;;;;;;;4.60;1.48;;;15.30;91.20;;;;;;5096411;28;20378;-64
2022/10/16 07:26:44;;;;;;;3.78;1.70;;;15.30;91.10;;;;;;5086606;28;20044;-62
2022/10/16 07:29:15;;;;;;;3.22;1.60;;;15.40;91.20;;;;;;5085591;28;20052;-63
2022/10/16 07:31:42;;;;;;;2.47;1.40;;;15.50;91.70;;;;;;5097943;28;20039;-62
2022/10/16 07:34:10;;;;;;;4.50;1.73;;;15.50;91.80;;;;;;5094485;27;20038;-63
2022/10/16 07:36:37;;;;;;;3.88;1.80;;;15.50;91.50;;;;;;5095113;28;20142;-63
2022/10/16 07:39:04;;;;;;;3.17;1.95;;;15.50;91.80;;;;;;5095314;28;20051;-62
2022/10/16 07:41:36;;;;;;;4.38;2.00;;;15.50;92.20;;;;;;5093439;28;20057;-63
2022/10/16 07:44:04;;;;;;;3.75;2.17;;;15.50;92.20;;;;;;5089324;28;20078;-62
2022/10/16 07:46:33;;;;;;;3.22;1.98;;;15.60;92.00;;;;;;5091049;28;20486;-62
2022/10/16 07:49:00;;;;;;;5.15;2.40;;;15.60;91.50;;;;;;5095117;28;20092;-63
2022/10/16 07:51:28;;;;;;;5.03;2.13;;;15.60;91.80;;;;;;5094696;28;20071;-62
2022/10/16 07:53:55;;;;;;;5.47;2.58;;;15.60;91.90;;;;;;5092869;28;20063;-62
2022/10/16 07:56:22;;;;;;;5.03;2.58;;;15.60;91.90;;;;;;5094351;28;20995;-63
2022/10/16 07:58:52;;;;;;;4.20;2.08;;;15.70;92.00;;;;;;5092330;28;20047;-63
2022/10/16 08:01:20;;;;;;;3.97;2.28;;;15.70;91.30;;;;;;5091522;28;20119;-62
2022/10/16 08:03:49;;;;;;;5.90;2.28;;;15.70;91.00;;;;;;5093196;28;20040;-63
2022/10/16 08:06:17;;;;;;;4.30;2.08;;;15.60;90.70;;;;;;5093750;28;20078;-63
2022/10/16 08:08:44;;;;;;;4.28;2.40;;;15.70;91.90;;;;;;5096409;28;20059;-63
2022/10/16 08:11:11;;;;;;;5.05;2.25;;;15.70;92.10;;;;;;5093674;28;20063;-63
2022/10/16 08:13:38;;;;;;;4.97;2.20;;;15.70;91.60;;;;;;5093617;28;20078;-63
2022/10/16 08:16:09;;;;;;;5.38;1.90;;;15.80;91.80;;;;;;5091291;28;20805;-62
2022/10/16 08:18:36;;;;;;;5.35;1.90;;;15.70;91.30;;;;;;5085024;28;20171;-62
2022/10/16 08:21:04;;;;;;;3.17;1.70;;;15.80;92.20;;;;;;5088092;28;20105;-62
2022/10/16 08:23:31;;;;;;;3.65;1.70;;;15.80;91.90;;;;;;5094787;28;20044;-63
2022/10/16 08:26:04;;;;;;;2.72;1.52;;;15.70;91.80;;;;;;5093319;28;20051;-63
2022/10/16 08:28:31;;;;;;;3.05;1.58;;;15.70;91.70;;;;;;5090948;28;20470;-62
2022/10/16 08:31:08;;;;;;;3.58;1.60;;;15.70;91.30;;;;;;5080865;28;20117;-62
2022/10/16 08:33:35;;;;;;;3.78;1.58;;;15.70;92.30;;;;;;5093100;28;20051;-63
2022/10/16 08:36:03;;;;;;;3.22;1.60;;;15.70;92.30;;;;;;5091750;28;20059;-62
2022/10/16 08:38:30;;;;;;;3.65;1.38;;;15.80;92.30;;;;;;5094533;28;20400;-63
2022/10/16 08:41:14;;;;;;;4.78;1.33;;;15.70;92.20;;;;;;5093640;28;20051;-62
2022/10/16 08:43:55;;;;;;;2.40;1.50;;;15.70;92.20;;;;;;5094822;28;20051;-62
2022/10/16 08:46:39;;;;;;;4.75;1.35;;;15.80;92.30;;;;;;5086727;28;20071;-63
2022/10/16 08:49:12;;;;;;;2.55;1.48;;;15.80;92.40;;;;;;5095425;28;20059;-62
2022/10/16 08:51:40;;;;;;;5.82;1.83;;;15.90;92.40;;;;;;5094936;28;20405;-63
2022/10/16 08:54:19;;;;;;;3.25;1.42;;;15.90;92.50;;;;;;5095399;28;20044;-63
2022/10/16 08:56:46;;;;;;;4.15;1.40;;;15.90;92.10;;;;;;5093876;28;20101;-62
2022/10/16 08:59:16;;;;;;;4.07;1.50;;;15.90;92.40;;;;;;5097021;28;20126;-63
2022/10/16 09:01:47;;;;;;;3.65;1.33;;;15.90;92.50;;;;;;5089701;28;20043;-63
2022/10/16 09:04:59;;;;;;;4.25;1.70;;;15.90;92.60;;;;;;5087106;28;20051;-62
2022/10/16 09:07:38;;;;;;;4.25;1.80;;;16.00;92.60;;;;;;5098321;28;20044;-63
2022/10/16 09:10:19;;;;;;;3.38;1.67;;;16.00;92.40;;;;;;5091657;28;20072;-63
2022/10/16 09:12:52;;;;;;;4.63;1.88;;;16.00;92.30;;;;;;5098389;28;20062;-64
2022/10/16 09:15:30;;;;;;;2.80;1.48;;;16.00;92.40;;;;;;5098197;28;20462;-62
2022/10/16 09:18:05;;;;;;;4.22;1.88;;;16.00;92.30;;;;;;5097166;28;20051;-63
2022/10/16 09:20:43;;;;;;;5.25;1.90;;;16.00;92.30;;;;;;5099547;27;20054;-63
2022/10/16 09:23:19;;;;;;;3.13;1.52;;;16.00;92.50;;;;;;5083748;27;20052;-61
2022/10/16 09:25:50;;;;;;;2.60;1.58;;;16.10;92.60;;;;;;5092622;27;20393;-62
2022/10/16 09:28:18;;;;;;;;;;;16.10;92.70;;;;;;5099322;28;20481;-63
2022/10/16 09:30:48;;;;;;;5.00;1.40;;;16.10;92.50;;;;;;5093091;28;19920;-63
2022/10/16 09:33:19;;;;;;;3.08;1.50;;;16.20;92.70;;;;;;5092780;28;20066;-63
2022/10/16 09:35:49;;;;;;;4.22;1.60;;;16.20;92.80;;;;;;5102003;28;20047;-64
2022/10/16 09:38:23;;;;;;;;;;;16.20;92.90;;;;;;5094222;28;20052;-65
2022/10/16 09:40:50;;;;;;;3.08;1.40;;;16.20;92.90;;;;;;5092325;28;20292;-64
2022/10/16 09:43:25;;;;;;;2.90;1.52;;;16.20;92.80;;;;;;5095529;28;20051;-64
2022/10/16 09:45:56;;;;;;;3.78;1.40;;;16.20;92.70;;;;;;5094358;28;20066;-63
2022/10/16 09:48:28;;;;;;;2.65;1.25;;;16.20;92.90;;;;;;5093908;28;20059;-63
2022/10/16 09:50:59;;;;;;;4.75;1.60;;;16.20;92.90;;;;;;5090768;28;20234;-63
2022/10/16 09:53:38;;;;;;;2.85;1.55;;;16.30;92.80;;;;;;5100634;28;20100;-64
2022/10/16 09:56:06;;;;;;;2.20;1.20;;;16.30;92.80;;;;;;5115888;28;20063;-64
2022/10/16 09:58:34;;;;;;;1.90;1.20;;;16.30;92.80;;;;;;5099374;28;20143;-62
2022/10/16 10:01:01;;;;;;;6.43;1.85;;;16.40;93.00;;;;;;5097537;28;20052;-64
2022/10/16 10:03:40;;;;;;;3.67;1.60;;;16.40;93.10;;;;;;5091083;28;20052;-65
2022/10/16 10:06:18;;;;;;;5.03;1.38;;;16.40;93.00;;;;;;5092484;28;20065;-64
2022/10/16 10:09:00;;;;;;;2.17;1.30;;;16.40;92.90;;;;;;5092748;28;20480;-62
2022/10/16 10:11:51;;;;;;;2.53;1.42;;;16.50;92.60;;;;;;5098507;28;20060;-62
2022/10/16 10:14:27;;;;;;;3.83;1.30;;;16.60;92.40;;;;;;5097321;27;20143;-63
2022/10/16 10:17:15;;;;;;;3.63;1.50;;;16.70;92.40;;;;;;5097077;28;20127;-62
2022/10/16 10:19:47;;;;;;;2.97;1.40;;;16.70;92.40;;;;;;5096874;28;20097;-63
2022/10/16 10:22:24;;;;;;;2.45;1.30;;;16.70;92.70;;;;;;5085511;28;20485;-63
2022/10/16 10:25:00;;;;;;;4.45;1.50;;;16.70;92.60;;;;;;5084649;28;20051;-63
2022/10/16 10:27:40;;;;;;;5.18;1.48;;;16.70;92.60;;;;;;5096731;28;20114;-63
2022/10/16 10:30:16;;;;;;;2.80;1.33;;;16.80;92.50;;;;;;5092705;28;20048;-63
2022/10/16 10:32:51;;;;;;;2.88;1.60;;;16.70;92.60;;;;;;5095757;27;20109;-63
2022/10/16 10:35:25;;;;;;;3.80;1.63;;;16.80;92.60;;;;;;5096638;28;20131;-64
2022/10/16 10:38:14;;;;;;;4.60;1.60;;;16.80;92.70;;;;;;5092898;27;20043;-64
2022/10/16 10:40:51;;;;;;;3.15;1.45;;;16.80;92.70;;;;;;5094925;27;20124;-62
2022/10/16 10:43:33;;;;;;;3.45;1.60;;;16.80;92.60;;;;;;5091589;28;20041;-63
2022/10/16 10:46:04;;;;;;;3.47;1.42;;;16.90;92.60;;;;;;5085874;28;20054;-63
2022/10/16 10:48:59;;;;;;;3.83;1.50;;;17.00;92.40;;;;;;5092109;28;20075;-63
2022/10/16 10:51:32;;;;;;;3.55;1.52;;;17.10;92.00;;;;;;5096071;28;20055;-62
2022/10/16 10:54:12;;;;;;;3.72;1.60;;;17.20;92.10;;;;;;5087264;28;20056;-63
2022/10/16 10:56:45;;;;;;;3.70;1.33;;;17.10;92.20;;;;;;5090526;28;20126;-64
2022/10/16 10:59:58;;;;;;;3.92;1.48;;;17.10;92.30;;;;;;5093492;28;20123;-62
2022/10/16 11:02:32;;;;;;;2.60;1.55;;;17.10;92.50;;;;;;5088338;28;20101;-63
2022/10/16 11:05:22;;;;;;;3.10;1.60;;;17.10;92.70;;;;;;5097659;28;20043;-63
2022/10/16 11:07:54;;;;;;;5.00;1.80;;;17.10;92.60;;;;;;5094425;28;20148;-63
2022/10/16 11:10:26;;;;;;;3.22;1.40;;;17.20;92.60;;;;;;5096673;28;20453;-62
2022/10/16 11:12:59;;;;;;;2.95;1.58;;;17.20;92.30;;;;;;5093744;28;20555;-63
2022/10/16 11:15:31;;;;;;;2.20;1.02;;;17.30;92.10;;;;;;5090978;28;20053;-63
2022/10/16 11:18:05;;;;;;;2.90;1.50;;;17.40;91.80;;;;;;5090253;28;20044;-62
2022/10/16 11:20:35;;;;;;;3.28;1.70;;;17.40;91.70;;;;;;5096485;28;20044;-63
2022/10/16 11:23:14;;;;;;;3.35;1.10;;;17.40;91.70;;;;;;5094655;28;20043;-62
2022/10/16 11:25:43;;;;;;;2.53;1.15;;;17.40;91.50;;;;;;5091041;28;20055;-62
2022/10/16 11:28:15;;;;;;;2.17;1.13;;;17.40;91.70;;;;;;5081708;28;20501;-62
2022/10/16 11:30:47;;;;;;;1.92;1.15;;;17.40;91.70;;;;;;5094819;28;20079;-63
2022/10/16 11:33:34;;;;;;;2.13;1.20;;;17.50;91.90;;;;;;5096886;27;20481;-64
2022/10/16 11:36:09;;;;;;;2.80;1.33;;;17.60;91.80;;;;;;5091507;28;20134;-64
2022/10/16 11:38:42;;;;;;;2.67;1.40;;;17.70;91.40;;;;;;5097942;28;20039;-63
2022/10/16 11:41:19;;;;;;;1.90;1.00;;;17.70;90.30;;;;;;5087607;28;20051;-63
2022/10/16 11:43:54;;;;;;;2.65;1.20;;;17.70;89.90;;;;;;5094626;28;20051;-63
2022/10/16 11:46:25;;;;;;;4.47;1.48;;;17.70;90.00;;;;;;5095882;28;20106;-64
2022/10/16 11:48:58;;;;;;;2.92;1.40;;;17.80;90.20;;;;;;5094403;28;20898;-63
2022/10/16 11:51:34;;;;;;;2.42;1.65;;;17.80;89.70;;;;;;5096179;28;20055;-63
2022/10/16 11:54:09;;;;;;;4.90;2.30;;;17.80;90.00;;;;;;5093339;28;20053;-61
2022/10/16 11:56:40;;;;;;;4.28;2.50;;;17.80;90.10;;;;;;5094993;28;20500;-63
2022/10/16 11:59:17;;;;;;;4.88;2.90;;;17.80;90.30;;;;;;5083899;27;20060;-64
2022/10/16 12:01:48;;;;;;;5.60;2.50;;;17.90;89.60;;;;;;5091012;28;20048;-64
2022/10/16 12:04:22;;;;;;;6.35;2.33;;;17.90;90.10;;;;;;5095597;28;20052;-63
2022/10/16 12:06:53;;;;;;;7.38;3.15;;;17.90;89.10;;;;;;5094383;28;20158;-63
2022/10/16 12:09:26;;;;;;;6.55;3.42;;;17.90;89.70;;;;;;5092967;28;20051;-63
2022/10/16 12:11:53;;;;;;;6.80;2.80;;;17.90;89.40;;;;;;5093779;28;20059;-63
2022/10/16 12:14:34;;;;;;;7.88;3.97;;;18.10;89.30;;;;;;5090544;28;20159;-63
2022/10/16 12:17:05;;;;;;;7.13;3.53;;;18.10;89.40;;;;;;5088350;28;20484;-62
2022/10/16 12:19:32;;;;;;;6.13;3.53;;;18.10;89.70;;;;;;5095661;28;20076;-62
2022/10/16 12:22:01;;;;;;;8.05;3.30;;;18.10;89.20;;;;;;5095079;28;20051;-63
2022/10/16 12:24:36;;;;;;;6.57;3.47;;;18.10;89.70;;;;;;5085788;28;20053;-64
2022/10/16 12:27:05;;;;;;;6.57;3.20;;;18.10;89.70;;;;;;5094385;28;20058;-64
2022/10/16 12:29:38;;;;;;;5.57;3.17;;;18.10;88.90;;;;;;5096579;28;20126;-63
2022/10/16 12:32:21;;;;;;;7.80;3.08;;;18.10;88.80;;;;;;5081181;28;20044;-62
2022/10/16 12:34:51;;;;;;;5.95;2.70;;;18.20;89.30;;;;;;5097398;28;20126;-63
2022/10/16 12:37:24;;;;;;;5.45;2.78;;;18.20;88.70;;;;;;5109270;28;20449;-63
2022/10/16 12:39:54;;;;;;;5.63;2.72;;;18.20;88.60;;;;;;5112734;28;20205;-63
2022/10/16 12:42:24;;;;;;;6.47;2.70;;;18.20;88.70;;;;;;5093674;28;20510;-62
2022/10/16 12:44:51;;;;;;;;;;;18.20;88.70;;;;;;5103814;28;20048;-62
2022/10/16 12:47:35;;;;;;;4.65;2.00;;;18.20;89.20;;;;;;5098089;28;19928;-63
2022/10/16 12:50:02;;;;;;;4.50;2.20;;;18.20;89.00;;;;;;5098908;28;20052;-63
2022/10/16 12:52:37;;;;;;;4.05;2.00;;;18.20;89.10;;;;;;5096844;28;20050;-63
2022/10/16 12:55:14;;;;;;;4.28;1.83;;;18.20;89.30;;;;;;5096189;28;20067;-63
2022/10/16 12:57:53;;;;;;;3.45;1.80;;;18.20;89.20;;;;;;5095340;27;20044;-63
2022/10/16 13:00:26;;;;;;;3.97;1.70;;;18.20;88.60;;;;;;5093347;27;20053;-63
2022/10/16 13:03:21;;;;;;;3.95;1.80;;;18.30;89.00;;;;;;5093540;28;20122;-63
2022/10/16 13:06:00;;;;;;;4.93;1.85;;;18.30;89.10;;;;;;5096669;28;20119;-63